sensor_id;sensor_type;location;lat;lon;timestamp;P1;durP1;ratioP1;P2;durP2;ratioP2
70301;SDS011;57706;56.326;43.882;2023-03-14T00:01:30;5.22;;;2.63;;
70301;SDS011;57706;56.326;43.882;2023-03-14T00:03:56;6.43;;;2.38;;
70301;SDS011;57706;56.326;43.882;2023-03-14T00:06:22;3.47;;;1.98;;
70301;SDS011;57706;56.326;43.882;2023-03-14T00:08:48;4.20;;;2.33;;
70301;SDS011;57706;56.326;43.882;2023-03-14T00:11:15;3.08;;;2.10;;
70301;SDS011;57706;56.326;43.882;2023-03-14T00:13:46;4.63;;;2.17;;
70301;SDS011;57706;56.326;43.882;2023-03-14T00:16:16;3.53;;;2.00;;
70301;SDS011;57706;56.326;43.882;2023-03-14T00:18:42;2.75;;;1.67;;
70301;SDS011;57706;56.326;43.882;2023-03-14T00:21:08;4.97;;;1.95;;
70301;SDS011;57706;56.326;43.882;2023-03-14T00:23:36;3.88;;;2.20;;
70301;SDS011;57706;56.326;43.882;2023-03-14T00:26:04;7.93;;;2.28;;
70301;SDS011;57706;56.326;43.882;2023-03-14T00:28:32;2.92;;;1.73;;
70301;SDS011;57706;56.326;43.882;2023-03-14T00:30:58;2.55;;;1.90;;
70301;SDS011;57706;56.326;43.882;2023-03-14T00:33:24;4.55;;;2.15;;
70301;SDS011;57706;56.326;43.882;2023-03-14T00:35:56;5.80;;;2.28;;
70301;SDS011;57706;56.326;43.882;2023-03-14T00:38:24;3.58;;;2.35;;
70301;SDS011;57706;56.326;43.882;2023-03-14T00:40:53;4.80;;;2.42;;
70301;SDS011;57706;56.326;43.882;2023-03-14T00:43:19;5.05;;;2.70;;
70301;SDS011;57706;56.326;43.882;2023-03-14T00:45:49;6.13;;;2.70;;
70301;SDS011;57706;56.326;43.882;2023-03-14T00:48:16;4.35;;;2.42;;
70301;SDS011;57706;56.326;43.882;2023-03-14T00:50:43;5.28;;;2.30;;
70301;SDS011;57706;56.326;43.882;2023-03-14T00:53:09;8.50;;;2.58;;
70301;SDS011;57706;56.326;43.882;2023-03-14T00:55:38;4.72;;;2.15;;
70301;SDS011;57706;56.326;43.882;2023-03-14T00:58:05;4.60;;;2.60;;
70301;SDS011;57706;56.326;43.882;2023-03-14T01:00:32;6.03;;;2.40;;
70301;SDS011;57706;56.326;43.882;2023-03-14T01:02:58;4.97;;;2.45;;
70301;SDS011;57706;56.326;43.882;2023-03-14T01:05:24;6.25;;;2.85;;
70301;SDS011;57706;56.326;43.882;2023-03-14T01:07:50;6.95;;;2.50;;
70301;SDS011;57706;56.326;43.882;2023-03-14T01:10:16;6.60;;;2.80;;
70301;SDS011;57706;56.326;43.882;2023-03-14T01:12:42;6.82;;;2.60;;
70301;SDS011;57706;56.326;43.882;2023-03-14T01:15:07;3.90;;;1.77;;
70301;SDS011;57706;56.326;43.882;2023-03-14T01:17:33;5.40;;;2.38;;
70301;SDS011;57706;56.326;43.882;2023-03-14T01:19:59;3.55;;;2.10;;
70301;SDS011;57706;56.326;43.882;2023-03-14T01:22:28;3.92;;;2.53;;
70301;SDS011;57706;56.326;43.882;2023-03-14T01:24:54;4.32;;;2.70;;
70301;SDS011;57706;56.326;43.882;2023-03-14T01:27:19;4.78;;;2.63;;
70301;SDS011;57706;56.326;43.882;2023-03-14T01:29:45;7.40;;;2.53;;
70301;SDS011;57706;56.326;43.882;2023-03-14T01:32:13;4.72;;;2.58;;
70301;SDS011;57706;56.326;43.882;2023-03-14T01:34:39;4.97;;;2.58;;
70301;SDS011;57706;56.326;43.882;2023-03-14T01:37:05;6.00;;;2.85;;
70301;SDS011;57706;56.326;43.882;2023-03-14T01:39:34;5.80;;;3.22;;
70301;SDS011;57706;56.326;43.882;2023-03-14T01:42:00;5.40;;;2.90;;
70301;SDS011;57706;56.326;43.882;2023-03-14T01:44:26;4.63;;;2.65;;
70301;SDS011;57706;56.326;43.882;2023-03-14T01:46:52;5.60;;;3.55;;
70301;SDS011;57706;56.326;43.882;2023-03-14T01:49:22;5.95;;;2.88;;
70301;SDS011;57706;56.326;43.882;2023-03-14T01:55:00;6.15;;;3.20;;
70301;SDS011;57706;56.326;43.882;2023-03-14T01:57:43;6.10;;;3.20;;
70301;SDS011;57706;56.326;43.882;2023-03-14T02:00:14;6.75;;;3.03;;
70301;SDS011;57706;56.326;43.882;2023-03-14T02:02:44;5.82;;;2.95;;
70301;SDS011;57706;56.326;43.882;2023-03-14T02:05:18;5.82;;;2.83;;
70301;SDS011;57706;56.326;43.882;2023-03-14T02:07:53;4.50;;;2.65;;
70301;SDS011;57706;56.326;43.882;2023-03-14T02:10:25;7.78;;;3.35;;
70301;SDS011;57706;56.326;43.882;2023-03-14T02:12:55;7.47;;;3.70;;
70301;SDS011;57706;56.326;43.882;2023-03-14T02:15:35;7.30;;;2.78;;
70301;SDS011;57706;56.326;43.882;2023-03-14T02:18:08;6.57;;;3.47;;
70301;SDS011;57706;56.326;43.882;2023-03-14T02:22:06;4.88;;;3.00;;
70301;SDS011;57706;56.326;43.882;2023-03-14T02:24:38;5.82;;;3.17;;
70301;SDS011;57706;56.326;43.882;2023-03-14T02:27:25;6.43;;;3.60;;
70301;SDS011;57706;56.326;43.882;2023-03-14T02:29:52;9.02;;;3.55;;
70301;SDS011;57706;56.326;43.882;2023-03-14T02:32:23;5.38;;;3.00;;
70301;SDS011;57706;56.326;43.882;2023-03-14T02:34:55;6.82;;;3.92;;
70301;SDS011;57706;56.326;43.882;2023-03-14T02:37:28;5.80;;;3.35;;
70301;SDS011;57706;56.326;43.882;2023-03-14T02:40:02;8.32;;;4.13;;
70301;SDS011;57706;56.326;43.882;2023-03-14T02:42:31;10.40;;;3.97;;
70301;SDS011;57706;56.326;43.882;2023-03-14T02:47:39;9.30;;;4.53;;
70301;SDS011;57706;56.326;43.882;2023-03-14T02:50:10;10.23;;;4.78;;
70301;SDS011;57706;56.326;43.882;2023-03-14T02:52:39;6.15;;;3.45;;
70301;SDS011;57706;56.326;43.882;2023-03-14T02:55:06;8.10;;;4.15;;
70301;SDS011;57706;56.326;43.882;2023-03-14T02:57:34;8.30;;;4.30;;
70301;SDS011;57706;56.326;43.882;2023-03-14T03:00:00;7.57;;;3.67;;
70301;SDS011;57706;56.326;43.882;2023-03-14T03:02:29;6.32;;;3.78;;
70301;SDS011;57706;56.326;43.882;2023-03-14T03:04:55;8.57;;;3.55;;
70301;SDS011;57706;56.326;43.882;2023-03-14T03:07:20;7.95;;;3.53;;
70301;SDS011;57706;56.326;43.882;2023-03-14T03:09:47;7.25;;;3.28;;
70301;SDS011;57706;56.326;43.882;2023-03-14T03:12:13;4.78;;;2.92;;
70301;SDS011;57706;56.326;43.882;2023-03-14T03:14:39;4.80;;;2.58;;
70301;SDS011;57706;56.326;43.882;2023-03-14T03:17:05;7.15;;;3.08;;
70301;SDS011;57706;56.326;43.882;2023-03-14T03:19:31;5.47;;;2.83;;
70301;SDS011;57706;56.326;43.882;2023-03-14T03:21:58;4.95;;;2.92;;
70301;SDS011;57706;56.326;43.882;2023-03-14T03:24:25;9.23;;;3.30;;
70301;SDS011;57706;56.326;43.882;2023-03-14T03:26:51;5.30;;;2.95;;
70301;SDS011;57706;56.326;43.882;2023-03-14T03:29:17;4.55;;;2.72;;
70301;SDS011;57706;56.326;43.882;2023-03-14T03:31:44;5.43;;;2.55;;
70301;SDS011;57706;56.326;43.882;2023-03-14T03:34:11;8.45;;;4.10;;
70301;SDS011;57706;56.326;43.882;2023-03-14T03:36:39;7.32;;;3.30;;
70301;SDS011;57706;56.326;43.882;2023-03-14T03:39:05;9.75;;;3.28;;
70301;SDS011;57706;56.326;43.882;2023-03-14T03:41:31;9.25;;;4.25;;
70301;SDS011;57706;56.326;43.882;2023-03-14T03:43:58;5.97;;;3.28;;
70301;SDS011;57706;56.326;43.882;2023-03-14T03:46:24;7.20;;;3.92;;
70301;SDS011;57706;56.326;43.882;2023-03-14T03:48:57;10.43;;;3.78;;
70301;SDS011;57706;56.326;43.882;2023-03-14T03:51:26;5.35;;;2.95;;
70301;SDS011;57706;56.326;43.882;2023-03-14T03:53:52;7.25;;;4.05;;
70301;SDS011;57706;56.326;43.882;2023-03-14T03:56:25;4.85;;;2.90;;
70301;SDS011;57706;56.326;43.882;2023-03-14T03:58:51;6.22;;;3.60;;
70301;SDS011;57706;56.326;43.882;2023-03-14T04:01:17;8.13;;;4.07;;
70301;SDS011;57706;56.326;43.882;2023-03-14T04:03:46;7.70;;;4.15;;
70301;SDS011;57706;56.326;43.882;2023-03-14T04:06:12;9.82;;;4.03;;
70301;SDS011;57706;56.326;43.882;2023-03-14T04:08:40;9.10;;;3.95;;
70301;SDS011;57706;56.326;43.882;2023-03-14T04:11:08;7.82;;;3.63;;
70301;SDS011;57706;56.326;43.882;2023-03-14T04:13:58;6.57;;;3.05;;
70301;SDS011;57706;56.326;43.882;2023-03-14T04:16:24;8.63;;;3.97;;
70301;SDS011;57706;56.326;43.882;2023-03-14T04:18:55;6.40;;;3.30;;
70301;SDS011;57706;56.326;43.882;2023-03-14T04:21:22;5.93;;;3.70;;
70301;SDS011;57706;56.326;43.882;2023-03-14T04:23:53;5.85;;;3.17;;
70301;SDS011;57706;56.326;43.882;2023-03-14T04:26:19;6.75;;;3.28;;
70301;SDS011;57706;56.326;43.882;2023-03-14T04:28:46;6.03;;;3.25;;
70301;SDS011;57706;56.326;43.882;2023-03-14T04:31:13;4.75;;;3.25;;
70301;SDS011;57706;56.326;43.882;2023-03-14T04:33:41;8.55;;;4.28;;
70301;SDS011;57706;56.326;43.882;2023-03-14T04:36:08;7.35;;;3.90;;
70301;SDS011;57706;56.326;43.882;2023-03-14T04:38:35;9.45;;;3.78;;
70301;SDS011;57706;56.326;43.882;2023-03-14T04:41:01;6.63;;;3.28;;
70301;SDS011;57706;56.326;43.882;2023-03-14T04:43:30;7.82;;;3.97;;
70301;SDS011;57706;56.326;43.882;2023-03-14T04:46:07;10.18;;;4.43;;
70301;SDS011;57706;56.326;43.882;2023-03-14T04:48:33;7.57;;;3.20;;
70301;SDS011;57706;56.326;43.882;2023-03-14T04:51:00;6.15;;;3.45;;
70301;SDS011;57706;56.326;43.882;2023-03-14T04:53:30;7.45;;;3.72;;
70301;SDS011;57706;56.326;43.882;2023-03-14T04:55:57;6.90;;;3.78;;
70301;SDS011;57706;56.326;43.882;2023-03-14T04:58:27;8.43;;;4.70;;
70301;SDS011;57706;56.326;43.882;2023-03-14T05:00:55;7.60;;;3.80;;
70301;SDS011;57706;56.326;43.882;2023-03-14T05:03:37;8.35;;;3.70;;
70301;SDS011;57706;56.326;43.882;2023-03-14T05:06:13;9.98;;;3.83;;
70301;SDS011;57706;56.326;43.882;2023-03-14T05:08:57;5.05;;;3.40;;
70301;SDS011;57706;56.326;43.882;2023-03-14T05:11:42;6.63;;;3.47;;
70301;SDS011;57706;56.326;43.882;2023-03-14T05:14:26;7.97;;;4.47;;
70301;SDS011;57706;56.326;43.882;2023-03-14T05:17:17;6.40;;;4.00;;
70301;SDS011;57706;56.326;43.882;2023-03-14T05:20:03;8.35;;;4.07;;
70301;SDS011;57706;56.326;43.882;2023-03-14T05:22:54;9.13;;;4.15;;
70301;SDS011;57706;56.326;43.882;2023-03-14T05:25:42;6.22;;;3.90;;
70301;SDS011;57706;56.326;43.882;2023-03-14T05:28:35;4.88;;;3.30;;
70301;SDS011;57706;56.326;43.882;2023-03-14T05:31:10;8.85;;;4.55;;
70301;SDS011;57706;56.326;43.882;2023-03-14T05:34:05;8.95;;;3.50;;
70301;SDS011;57706;56.326;43.882;2023-03-14T05:36:38;9.68;;;4.15;;
70301;SDS011;57706;56.326;43.882;2023-03-14T05:39:15;7.13;;;4.10;;
70301;SDS011;57706;56.326;43.882;2023-03-14T05:41:59;7.35;;;4.40;;
70301;SDS011;57706;56.326;43.882;2023-03-14T05:44:45;6.20;;;3.65;;
70301;SDS011;57706;56.326;43.882;2023-03-14T05:47:43;7.88;;;4.32;;
70301;SDS011;57706;56.326;43.882;2023-03-14T05:50:22;6.18;;;3.63;;
70301;SDS011;57706;56.326;43.882;2023-03-14T05:53:14;10.60;;;4.75;;
70301;SDS011;57706;56.326;43.882;2023-03-14T05:56:07;8.95;;;3.85;;
70301;SDS011;57706;56.326;43.882;2023-03-14T05:58:53;13.23;;;4.75;;
70301;SDS011;57706;56.326;43.882;2023-03-14T06:01:27;8.57;;;4.28;;
70301;SDS011;57706;56.326;43.882;2023-03-14T06:04:09;11.60;;;5.55;;
70301;SDS011;57706;56.326;43.882;2023-03-14T06:06:35;13.38;;;5.50;;
70301;SDS011;57706;56.326;43.882;2023-03-14T06:09:01;9.35;;;3.90;;
70301;SDS011;57706;56.326;43.882;2023-03-14T06:11:29;9.77;;;4.10;;
70301;SDS011;57706;56.326;43.882;2023-03-14T06:13:55;9.60;;;3.38;;
70301;SDS011;57706;56.326;43.882;2023-03-14T06:16:21;9.05;;;3.83;;
70301;SDS011;57706;56.326;43.882;2023-03-14T06:18:47;9.95;;;4.65;;
70301;SDS011;57706;56.326;43.882;2023-03-14T06:21:17;7.78;;;3.08;;
70301;SDS011;57706;56.326;43.882;2023-03-14T06:23:45;9.02;;;3.45;;
70301;SDS011;57706;56.326;43.882;2023-03-14T06:26:11;12.48;;;5.57;;
70301;SDS011;57706;56.326;43.882;2023-03-14T06:28:38;17.15;;;7.25;;
70301;SDS011;57706;56.326;43.882;2023-03-14T06:31:04;18.73;;;6.95;;
70301;SDS011;57706;56.326;43.882;2023-03-14T06:33:37;10.60;;;5.50;;
70301;SDS011;57706;56.326;43.882;2023-03-14T06:36:04;5.63;;;3.10;;
70301;SDS011;57706;56.326;43.882;2023-03-14T06:38:32;9.05;;;3.25;;
70301;SDS011;57706;56.326;43.882;2023-03-14T06:41:02;5.95;;;3.10;;
70301;SDS011;57706;56.326;43.882;2023-03-14T06:43:41;5.95;;;3.28;;
70301;SDS011;57706;56.326;43.882;2023-03-14T06:46:08;7.55;;;2.80;;
70301;SDS011;57706;56.326;43.882;2023-03-14T06:48:36;3.78;;;2.35;;
70301;SDS011;57706;56.326;43.882;2023-03-14T06:51:02;3.53;;;1.70;;
70301;SDS011;57706;56.326;43.882;2023-03-14T06:53:28;6.70;;;2.72;;
70301;SDS011;57706;56.326;43.882;2023-03-14T06:55:56;4.85;;;2.20;;
70301;SDS011;57706;56.326;43.882;2023-03-14T06:58:24;4.95;;;2.15;;
70301;SDS011;57706;56.326;43.882;2023-03-14T07:00:50;6.78;;;2.30;;
70301;SDS011;57706;56.326;43.882;2023-03-14T07:03:22;4.80;;;2.10;;
70301;SDS011;57706;56.326;43.882;2023-03-14T07:05:50;3.78;;;2.35;;
70301;SDS011;57706;56.326;43.882;2023-03-14T07:08:16;3.30;;;2.03;;
70301;SDS011;57706;56.326;43.882;2023-03-14T07:10:43;4.80;;;2.63;;
70301;SDS011;57706;56.326;43.882;2023-03-14T07:13:09;7.35;;;3.33;;
70301;SDS011;57706;56.326;43.882;2023-03-14T07:15:45;3.28;;;2.13;;
70301;SDS011;57706;56.326;43.882;2023-03-14T07:18:10;3.53;;;1.98;;
70301;SDS011;57706;56.326;43.882;2023-03-14T07:20:36;2.50;;;1.75;;
70301;SDS011;57706;56.326;43.882;2023-03-14T07:23:03;2.47;;;1.70;;
70301;SDS011;57706;56.326;43.882;2023-03-14T07:25:37;8.32;;;2.40;;
70301;SDS011;57706;56.326;43.882;2023-03-14T07:28:03;5.10;;;2.13;;
70301;SDS011;57706;56.326;43.882;2023-03-14T07:30:29;3.35;;;2.20;;
70301;SDS011;57706;56.326;43.882;2023-03-14T07:32:57;6.25;;;2.72;;
70301;SDS011;57706;56.326;43.882;2023-03-14T07:35:23;6.90;;;3.05;;
70301;SDS011;57706;56.326;43.882;2023-03-14T07:37:49;4.45;;;2.00;;
70301;SDS011;57706;56.326;43.882;2023-03-14T07:40:19;6.78;;;3.15;;
70301;SDS011;57706;56.326;43.882;2023-03-14T07:42:46;5.88;;;3.50;;
70301;SDS011;57706;56.326;43.882;2023-03-14T07:45:25;4.63;;;3.00;;
70301;SDS011;57706;56.326;43.882;2023-03-14T07:47:51;5.95;;;3.05;;
70301;SDS011;57706;56.326;43.882;2023-03-14T07:50:17;2.92;;;2.00;;
70301;SDS011;57706;56.326;43.882;2023-03-14T07:52:42;7.95;;;2.22;;
70301;SDS011;57706;56.326;43.882;2023-03-14T07:55:08;2.78;;;1.92;;
70301;SDS011;57706;56.326;43.882;2023-03-14T07:57:34;6.05;;;3.15;;
70301;SDS011;57706;56.326;43.882;2023-03-14T08:00:00;5.78;;;2.78;;
70301;SDS011;57706;56.326;43.882;2023-03-14T08:02:26;5.78;;;3.17;;
70301;SDS011;57706;56.326;43.882;2023-03-14T08:04:52;5.30;;;2.88;;
70301;SDS011;57706;56.326;43.882;2023-03-14T08:07:18;6.85;;;2.85;;
70301;SDS011;57706;56.326;43.882;2023-03-14T08:09:43;5.07;;;1.92;;
70301;SDS011;57706;56.326;43.882;2023-03-14T08:12:09;3.78;;;2.25;;
70301;SDS011;57706;56.326;43.882;2023-03-14T08:14:35;4.30;;;2.60;;
70301;SDS011;57706;56.326;43.882;2023-03-14T08:17:01;8.73;;;2.95;;
70301;SDS011;57706;56.326;43.882;2023-03-14T08:19:27;9.50;;;3.83;;
70301;SDS011;57706;56.326;43.882;2023-03-14T08:21:53;7.18;;;3.30;;
70301;SDS011;57706;56.326;43.882;2023-03-14T08:24:19;9.57;;;3.65;;
70301;SDS011;57706;56.326;43.882;2023-03-14T08:26:45;9.57;;;3.42;;
70301;SDS011;57706;56.326;43.882;2023-03-14T08:29:11;7.57;;;3.03;;
70301;SDS011;57706;56.326;43.882;2023-03-14T08:31:38;8.32;;;3.92;;
70301;SDS011;57706;56.326;43.882;2023-03-14T08:34:04;9.73;;;3.83;;
70301;SDS011;57706;56.326;43.882;2023-03-14T08:36:32;10.10;;;3.35;;
70301;SDS011;57706;56.326;43.882;2023-03-14T08:38:57;12.45;;;4.32;;
70301;SDS011;57706;56.326;43.882;2023-03-14T08:41:23;8.18;;;3.58;;
70301;SDS011;57706;56.326;43.882;2023-03-14T08:43:49;6.72;;;3.10;;
70301;SDS011;57706;56.326;43.882;2023-03-14T08:46:15;3.75;;;2.33;;
70301;SDS011;57706;56.326;43.882;2023-03-14T08:48:41;3.38;;;2.35;;
70301;SDS011;57706;56.326;43.882;2023-03-14T08:51:08;5.63;;;2.15;;
70301;SDS011;57706;56.326;43.882;2023-03-14T08:53:36;4.45;;;2.00;;
70301;SDS011;57706;56.326;43.882;2023-03-14T08:56:02;2.75;;;1.42;;
70301;SDS011;57706;56.326;43.882;2023-03-14T08:58:31;3.35;;;1.45;;
70301;SDS011;57706;56.326;43.882;2023-03-14T09:00:57;4.60;;;1.40;;
70301;SDS011;57706;56.326;43.882;2023-03-14T09:03:23;4.70;;;1.88;;
70301;SDS011;57706;56.326;43.882;2023-03-14T09:05:50;3.45;;;1.52;;
70301;SDS011;57706;56.326;43.882;2023-03-14T09:08:17;1.98;;;1.17;;
70301;SDS011;57706;56.326;43.882;2023-03-14T09:10:43;4.50;;;1.92;;
70301;SDS011;57706;56.326;43.882;2023-03-14T09:13:09;2.78;;;1.50;;
70301;SDS011;57706;56.326;43.882;2023-03-14T09:15:34;4.90;;;1.40;;
70301;SDS011;57706;56.326;43.882;2023-03-14T09:18:00;4.60;;;1.40;;
70301;SDS011;57706;56.326;43.882;2023-03-14T09:20:26;1.83;;;1.30;;
70301;SDS011;57706;56.326;43.882;2023-03-14T09:22:52;3.58;;;1.33;;
70301;SDS011;57706;56.326;43.882;2023-03-14T09:25:19;4.03;;;1.70;;
70301;SDS011;57706;56.326;43.882;2023-03-14T09:27:45;4.18;;;1.67;;
70301;SDS011;57706;56.326;43.882;2023-03-14T09:30:11;2.58;;;1.38;;
70301;SDS011;57706;56.326;43.882;2023-03-14T09:32:37;3.05;;;1.30;;
70301;SDS011;57706;56.326;43.882;2023-03-14T09:35:03;3.08;;;1.80;;
70301;SDS011;57706;56.326;43.882;2023-03-14T09:37:29;2.35;;;1.40;;
70301;SDS011;57706;56.326;43.882;2023-03-14T09:39:55;2.97;;;1.48;;
70301;SDS011;57706;56.326;43.882;2023-03-14T09:42:22;1.98;;;1.50;;
70301;SDS011;57706;56.326;43.882;2023-03-14T09:44:57;2.10;;;1.50;;
70301;SDS011;57706;56.326;43.882;2023-03-14T09:47:25;3.85;;;1.35;;
70301;SDS011;57706;56.326;43.882;2023-03-14T09:49:53;2.40;;;1.55;;
70301;SDS011;57706;56.326;43.882;2023-03-14T09:52:21;3.30;;;1.98;;
70301;SDS011;57706;56.326;43.882;2023-03-14T09:54:52;2.00;;;1.40;;
70301;SDS011;57706;56.326;43.882;2023-03-14T09:57:25;3.35;;;1.33;;
70301;SDS011;57706;56.326;43.882;2023-03-14T09:59:53;1.85;;;1.27;;
70301;SDS011;57706;56.326;43.882;2023-03-14T10:02:24;2.35;;;1.65;;
70301;SDS011;57706;56.326;43.882;2023-03-14T10:04:53;4.75;;;1.70;;
70301;SDS011;57706;56.326;43.882;2023-03-14T10:07:32;2.70;;;1.42;;
70301;SDS011;57706;56.326;43.882;2023-03-14T10:09:59;2.78;;;1.75;;
70301;SDS011;57706;56.326;43.882;2023-03-14T10:12:31;4.00;;;1.83;;
70301;SDS011;57706;56.326;43.882;2023-03-14T10:15:02;5.47;;;1.63;;
70301;SDS011;57706;56.326;43.882;2023-03-14T10:17:43;3.33;;;1.80;;
70301;SDS011;57706;56.326;43.882;2023-03-14T10:25:41;3.60;;;1.70;;
70301;SDS011;57706;56.326;43.882;2023-03-14T10:28:31;3.70;;;2.10;;
70301;SDS011;57706;56.326;43.882;2023-03-14T10:30:59;3.35;;;1.95;;
70301;SDS011;57706;56.326;43.882;2023-03-14T10:33:29;5.47;;;2.15;;
70301;SDS011;57706;56.326;43.882;2023-03-14T10:35:59;4.72;;;1.80;;
70301;SDS011;57706;56.326;43.882;2023-03-14T10:38:44;4.43;;;1.98;;
70301;SDS011;57706;56.326;43.882;2023-03-14T10:41:23;3.85;;;2.20;;
70301;SDS011;57706;56.326;43.882;2023-03-14T10:43:52;3.75;;;1.90;;
70301;SDS011;57706;56.326;43.882;2023-03-14T10:46:23;7.78;;;1.92;;
70301;SDS011;57706;56.326;43.882;2023-03-14T10:49:14;3.65;;;2.10;;
70301;SDS011;57706;56.326;43.882;2023-03-14T10:51:52;3.38;;;1.88;;
70301;SDS011;57706;56.326;43.882;2023-03-14T10:54:21;3.92;;;2.10;;
70301;SDS011;57706;56.326;43.882;2023-03-14T10:56:58;1.90;;;1.42;;
70301;SDS011;57706;56.326;43.882;2023-03-14T10:59:27;2.97;;;1.92;;
70301;SDS011;57706;56.326;43.882;2023-03-14T11:02:01;5.68;;;2.10;;
70301;SDS011;57706;56.326;43.882;2023-03-14T11:07:39;2.47;;;1.88;;
70301;SDS011;57706;56.326;43.882;2023-03-14T11:13:04;3.70;;;2.20;;
70301;SDS011;57706;56.326;43.882;2023-03-14T11:23:40;3.25;;;2.10;;
70301;SDS011;57706;56.326;43.882;2023-03-14T11:28:47;5.07;;;2.03;;
70301;SDS011;57706;56.326;43.882;2023-03-14T11:39:17;2.20;;;1.63;;
70301;SDS011;57706;56.326;43.882;2023-03-14T11:41:46;7.18;;;1.92;;
70301;SDS011;57706;56.326;43.882;2023-03-14T11:44:22;4.43;;;1.92;;
70301;SDS011;57706;56.326;43.882;2023-03-14T11:49:35;4.45;;;1.83;;
70301;SDS011;57706;56.326;43.882;2023-03-14T11:52:20;3.63;;;1.70;;
70301;SDS011;57706;56.326;43.882;2023-03-14T11:54:56;6.10;;;2.10;;
70301;SDS011;57706;56.326;43.882;2023-03-14T11:57:28;2.50;;;1.70;;
70301;SDS011;57706;56.326;43.882;2023-03-14T12:00:01;3.25;;;2.20;;
70301;SDS011;57706;56.326;43.882;2023-03-14T12:05:45;3.80;;;1.67;;
70301;SDS011;57706;56.326;43.882;2023-03-14T12:13:57;3.00;;;1.90;;
70301;SDS011;57706;56.326;43.882;2023-03-14T12:18:52;4.05;;;1.75;;
70301;SDS011;57706;56.326;43.882;2023-03-14T12:21:19;6.45;;;2.20;;
70301;SDS011;57706;56.326;43.882;2023-03-14T12:23:55;5.07;;;2.03;;
70301;SDS011;57706;56.326;43.882;2023-03-14T12:26:26;3.35;;;1.95;;
70301;SDS011;57706;56.326;43.882;2023-03-14T12:29:14;3.08;;;2.03;;
70301;SDS011;57706;56.326;43.882;2023-03-14T12:31:42;4.13;;;1.90;;
70301;SDS011;57706;56.326;43.882;2023-03-14T12:34:31;3.55;;;1.92;;
70301;SDS011;57706;56.326;43.882;2023-03-14T12:37:41;3.65;;;1.83;;
70301;SDS011;57706;56.326;43.882;2023-03-14T12:40:21;3.10;;;1.73;;
70301;SDS011;57706;56.326;43.882;2023-03-14T12:42:58;2.25;;;1.50;;
70301;SDS011;57706;56.326;43.882;2023-03-14T12:45:33;4.70;;;2.00;;
70301;SDS011;57706;56.326;43.882;2023-03-14T12:50:36;2.30;;;1.73;;
70301;SDS011;57706;56.326;43.882;2023-03-14T12:55:49;4.22;;;1.92;;
70301;SDS011;57706;56.326;43.882;2023-03-14T12:58:43;4.22;;;1.95;;
70301;SDS011;57706;56.326;43.882;2023-03-14T13:01:17;3.53;;;2.05;;
70301;SDS011;57706;56.326;43.882;2023-03-14T13:12:07;5.78;;;1.80;;
70301;SDS011;57706;56.326;43.882;2023-03-14T13:14:41;7.07;;;2.00;;
70301;SDS011;57706;56.326;43.882;2023-03-14T13:17:10;5.70;;;2.30;;
70301;SDS011;57706;56.326;43.882;2023-03-14T13:19:38;3.53;;;2.33;;
70301;SDS011;57706;56.326;43.882;2023-03-14T13:22:05;4.18;;;2.03;;
70301;SDS011;57706;56.326;43.882;2023-03-14T13:24:40;2.60;;;2.00;;
70301;SDS011;57706;56.326;43.882;2023-03-14T13:27:08;3.85;;;2.38;;
70301;SDS011;57706;56.326;43.882;2023-03-14T13:29:44;3.95;;;1.90;;
70301;SDS011;57706;56.326;43.882;2023-03-14T13:32:17;4.43;;;2.45;;
70301;SDS011;57706;56.326;43.882;2023-03-14T13:34:46;4.40;;;2.30;;
70301;SDS011;57706;56.326;43.882;2023-03-14T13:37:17;4.18;;;2.38;;
70301;SDS011;57706;56.326;43.882;2023-03-14T13:39:49;4.78;;;2.85;;
70301;SDS011;57706;56.326;43.882;2023-03-14T13:42:15;6.25;;;2.35;;
70301;SDS011;57706;56.326;43.882;2023-03-14T13:44:42;7.97;;;2.78;;
70301;SDS011;57706;56.326;43.882;2023-03-14T13:47:13;3.85;;;2.22;;
70301;SDS011;57706;56.326;43.882;2023-03-14T13:49:41;6.15;;;2.72;;
70301;SDS011;57706;56.326;43.882;2023-03-14T13:52:41;4.22;;;1.95;;
70301;SDS011;57706;56.326;43.882;2023-03-14T13:55:02;4.65;;;2.20;;
70301;SDS011;57706;56.326;43.882;2023-03-14T13:57:42;4.32;;;2.08;;
70301;SDS011;57706;56.326;43.882;2023-03-14T14:00:27;6.78;;;2.70;;
70301;SDS011;57706;56.326;43.882;2023-03-14T14:02:54;4.10;;;2.03;;
70301;SDS011;57706;56.326;43.882;2023-03-14T14:05:22;3.85;;;2.00;;
70301;SDS011;57706;56.326;43.882;2023-03-14T14:07:52;4.75;;;2.08;;
70301;SDS011;57706;56.326;43.882;2023-03-14T14:10:18;5.50;;;2.08;;
70301;SDS011;57706;56.326;43.882;2023-03-14T14:15:16;3.83;;;2.08;;
70301;SDS011;57706;56.326;43.882;2023-03-14T14:17:53;4.03;;;2.30;;
70301;SDS011;57706;56.326;43.882;2023-03-14T14:20:35;3.97;;;2.30;;
70301;SDS011;57706;56.326;43.882;2023-03-14T14:23:07;5.65;;;2.30;;
70301;SDS011;57706;56.326;43.882;2023-03-14T14:25:37;4.82;;;2.40;;
70301;SDS011;57706;56.326;43.882;2023-03-14T14:28:23;4.40;;;2.55;;
70301;SDS011;57706;56.326;43.882;2023-03-14T14:33:53;6.57;;;3.22;;
70301;SDS011;57706;56.326;43.882;2023-03-14T14:41:45;5.30;;;2.72;;
70301;SDS011;57706;56.326;43.882;2023-03-14T14:44:16;7.32;;;3.40;;
70301;SDS011;57706;56.326;43.882;2023-03-14T14:46:46;5.38;;;3.10;;
70301;SDS011;57706;56.326;43.882;2023-03-14T14:49:17;8.43;;;3.22;;
70301;SDS011;57706;56.326;43.882;2023-03-14T14:51:47;6.25;;;2.92;;
70301;SDS011;57706;56.326;43.882;2023-03-14T14:54:19;6.75;;;3.53;;
70301;SDS011;57706;56.326;43.882;2023-03-14T14:57:01;5.75;;;2.70;;
70301;SDS011;57706;56.326;43.882;2023-03-14T14:59:29;6.22;;;2.47;;
70301;SDS011;57706;56.326;43.882;2023-03-14T15:01:59;5.53;;;3.13;;
70301;SDS011;57706;56.326;43.882;2023-03-14T15:04:26;7.05;;;2.92;;
70301;SDS011;57706;56.326;43.882;2023-03-14T15:06:55;5.88;;;2.38;;
70301;SDS011;57706;56.326;43.882;2023-03-14T15:09:21;4.15;;;2.53;;
70301;SDS011;57706;56.326;43.882;2023-03-14T15:11:47;4.72;;;2.65;;
70301;SDS011;57706;56.326;43.882;2023-03-14T15:14:14;5.15;;;2.67;;
70301;SDS011;57706;56.326;43.882;2023-03-14T15:16:40;4.13;;;2.13;;
70301;SDS011;57706;56.326;43.882;2023-03-14T15:19:11;3.55;;;2.55;;
70301;SDS011;57706;56.326;43.882;2023-03-14T15:21:40;6.15;;;2.65;;
70301;SDS011;57706;56.326;43.882;2023-03-14T15:24:07;4.25;;;2.42;;
70301;SDS011;57706;56.326;43.882;2023-03-14T15:26:34;5.13;;;2.40;;
70301;SDS011;57706;56.326;43.882;2023-03-14T15:29:00;5.82;;;2.63;;
70301;SDS011;57706;56.326;43.882;2023-03-14T15:31:26;6.72;;;2.55;;
70301;SDS011;57706;56.326;43.882;2023-03-14T15:33:51;5.03;;;2.83;;
70301;SDS011;57706;56.326;43.882;2023-03-14T15:36:21;4.97;;;2.35;;
70301;SDS011;57706;56.326;43.882;2023-03-14T15:38:52;5.28;;;2.85;;
70301;SDS011;57706;56.326;43.882;2023-03-14T15:41:19;6.07;;;2.50;;
70301;SDS011;57706;56.326;43.882;2023-03-14T15:43:45;5.45;;;2.33;;
70301;SDS011;57706;56.326;43.882;2023-03-14T15:46:11;3.40;;;2.42;;
70301;SDS011;57706;56.326;43.882;2023-03-14T15:48:37;7.00;;;2.63;;
70301;SDS011;57706;56.326;43.882;2023-03-14T15:51:03;3.95;;;2.40;;
70301;SDS011;57706;56.326;43.882;2023-03-14T15:53:29;2.95;;;2.45;;
70301;SDS011;57706;56.326;43.882;2023-03-14T15:55:55;5.35;;;2.90;;
70301;SDS011;57706;56.326;43.882;2023-03-14T15:58:21;3.90;;;2.33;;
70301;SDS011;57706;56.326;43.882;2023-03-14T16:00:47;4.03;;;2.60;;
70301;SDS011;57706;56.326;43.882;2023-03-14T16:03:14;4.50;;;2.53;;
70301;SDS011;57706;56.326;43.882;2023-03-14T16:05:40;3.33;;;2.00;;
70301;SDS011;57706;56.326;43.882;2023-03-14T16:08:06;4.18;;;2.50;;